sensor_id;sensor_type;location;lat;lon;timestamp;P1;durP1;ratioP1;P2;durP2;ratioP2
7150;SDS011;3617;48.836;9.172;2024-03-02T00:00:20;11.33;;;6.20;;
7150;SDS011;3617;48.836;9.172;2024-03-02T00:02:47;11.13;;;6.50;;
7150;SDS011;3617;48.836;9.172;2024-03-02T00:05:17;12.60;;;6.67;;
7150;SDS011;3617;48.836;9.172;2024-03-02T00:07:47;11.10;;;6.23;;
7150;SDS011;3617;48.836;9.172;2024-03-02T00:10:19;16.77;;;6.90;;
7150;SDS011;3617;48.836;9.172;2024-03-02T00:12:47;12.07;;;6.50;;
7150;SDS011;3617;48.836;9.172;2024-03-02T00:17:57;10.30;;;5.37;;
7150;SDS011;3617;48.836;9.172;2024-03-02T00:20:24;9.70;;;6.10;;
7150;SDS011;3617;48.836;9.172;2024-03-02T00:22:58;9.23;;;5.50;;
7150;SDS011;3617;48.836;9.172;2024-03-02T00:25:26;12.50;;;6.63;;
7150;SDS011;3617;48.836;9.172;2024-03-02T00:27:51;10.23;;;5.83;;
7150;SDS011;3617;48.836;9.172;2024-03-02T00:30:44;9.50;;;5.40;;
7150;SDS011;3617;48.836;9.172;2024-03-02T00:33:06;16.23;;;5.47;;
7150;SDS011;3617;48.836;9.172;2024-03-02T00:35:32;9.77;;;6.03;;
7150;SDS011;3617;48.836;9.172;2024-03-02T00:38:02;10.10;;;5.17;;
7150;SDS011;3617;48.836;9.172;2024-03-02T00:40:29;8.93;;;5.60;;
7150;SDS011;3617;48.836;9.172;2024-03-02T00:42:55;9.83;;;5.57;;
7150;SDS011;3617;48.836;9.172;2024-03-02T00:45:21;8.97;;;5.87;;
7150;SDS011;3617;48.836;9.172;2024-03-02T00:47:50;8.67;;;5.30;;
7150;SDS011;3617;48.836;9.172;2024-03-02T00:50:16;9.80;;;6.10;;
7150;SDS011;3617;48.836;9.172;2024-03-02T00:52:42;12.40;;;5.57;;
7150;SDS011;3617;48.836;9.172;2024-03-02T00:55:08;7.47;;;4.77;;
7150;SDS011;3617;48.836;9.172;2024-03-02T00:57:34;8.67;;;5.23;;
7150;SDS011;3617;48.836;9.172;2024-03-02T01:00:00;7.80;;;5.23;;
7150;SDS011;3617;48.836;9.172;2024-03-02T01:02:27;10.47;;;6.63;;
7150;SDS011;3617;48.836;9.172;2024-03-02T01:04:54;10.43;;;5.60;;
7150;SDS011;3617;48.836;9.172;2024-03-02T01:07:20;9.10;;;5.90;;
7150;SDS011;3617;48.836;9.172;2024-03-02T01:09:46;11.97;;;5.70;;
7150;SDS011;3617;48.836;9.172;2024-03-02T01:12:12;10.17;;;5.10;;
7150;SDS011;3617;48.836;9.172;2024-03-02T01:14:40;9.43;;;5.73;;
7150;SDS011;3617;48.836;9.172;2024-03-02T01:17:05;11.97;;;5.37;;
7150;SDS011;3617;48.836;9.172;2024-03-02T01:19:31;9.10;;;5.23;;
7150;SDS011;3617;48.836;9.172;2024-03-02T01:21:57;8.53;;;5.30;;
7150;SDS011;3617;48.836;9.172;2024-03-02T01:24:23;9.67;;;4.63;;
7150;SDS011;3617;48.836;9.172;2024-03-02T01:26:49;8.60;;;5.40;;
7150;SDS011;3617;48.836;9.172;2024-03-02T01:29:15;7.63;;;5.00;;
7150;SDS011;3617;48.836;9.172;2024-03-02T01:31:41;8.80;;;5.37;;
7150;SDS011;3617;48.836;9.172;2024-03-02T01:34:08;11.13;;;5.93;;
7150;SDS011;3617;48.836;9.172;2024-03-02T01:36:34;14.10;;;5.83;;
7150;SDS011;3617;48.836;9.172;2024-03-02T01:39:00;9.47;;;5.43;;
7150;SDS011;3617;48.836;9.172;2024-03-02T01:41:26;9.27;;;5.40;;
7150;SDS011;3617;48.836;9.172;2024-03-02T01:43:52;9.57;;;5.17;;
7150;SDS011;3617;48.836;9.172;2024-03-02T01:46:18;10.70;;;5.57;;
7150;SDS011;3617;48.836;9.172;2024-03-02T01:48:44;7.90;;;5.03;;
7150;SDS011;3617;48.836;9.172;2024-03-02T01:51:10;8.33;;;5.40;;
7150;SDS011;3617;48.836;9.172;2024-03-02T01:53:36;9.10;;;4.73;;
7150;SDS011;3617;48.836;9.172;2024-03-02T01:56:02;11.73;;;6.10;;
7150;SDS011;3617;48.836;9.172;2024-03-02T01:58:28;10.70;;;5.60;;
7150;SDS011;3617;48.836;9.172;2024-03-02T02:00:54;9.90;;;5.40;;
7150;SDS011;3617;48.836;9.172;2024-03-02T02:03:20;10.20;;;5.60;;
7150;SDS011;3617;48.836;9.172;2024-03-02T02:05:46;10.40;;;6.13;;
7150;SDS011;3617;48.836;9.172;2024-03-02T02:08:13;8.67;;;4.87;;
7150;SDS011;3617;48.836;9.172;2024-03-02T02:10:39;8.50;;;5.20;;
7150;SDS011;3617;48.836;9.172;2024-03-02T02:13:05;8.57;;;5.27;;
7150;SDS011;3617;48.836;9.172;2024-03-02T02:15:32;8.17;;;5.37;;
7150;SDS011;3617;48.836;9.172;2024-03-02T02:18:00;7.80;;;4.50;;
7150;SDS011;3617;48.836;9.172;2024-03-02T02:20:26;8.77;;;5.17;;
7150;SDS011;3617;48.836;9.172;2024-03-02T02:22:56;16.40;;;6.00;;
7150;SDS011;3617;48.836;9.172;2024-03-02T02:25:22;9.53;;;5.47;;
7150;SDS011;3617;48.836;9.172;2024-03-02T02:27:48;11.40;;;5.97;;
7150;SDS011;3617;48.836;9.172;2024-03-02T02:30:18;8.13;;;5.00;;
7150;SDS011;3617;48.836;9.172;2024-03-02T02:32:44;10.10;;;4.93;;
7150;SDS011;3617;48.836;9.172;2024-03-02T02:35:10;11.13;;;6.50;;
7150;SDS011;3617;48.836;9.172;2024-03-02T02:37:35;10.17;;;5.03;;
7150;SDS011;3617;48.836;9.172;2024-03-02T02:40:02;9.20;;;5.87;;
7150;SDS011;3617;48.836;9.172;2024-03-02T02:42:29;8.80;;;6.00;;
7150;SDS011;3617;48.836;9.172;2024-03-02T02:44:55;7.87;;;4.93;;
7150;SDS011;3617;48.836;9.172;2024-03-02T02:47:21;10.80;;;5.40;;
7150;SDS011;3617;48.836;9.172;2024-03-02T02:49:47;14.00;;;5.97;;
7150;SDS011;3617;48.836;9.172;2024-03-02T02:52:13;9.47;;;5.47;;
7150;SDS011;3617;48.836;9.172;2024-03-02T02:54:39;8.07;;;5.23;;
7150;SDS011;3617;48.836;9.172;2024-03-02T02:57:05;11.63;;;6.00;;
7150;SDS011;3617;48.836;9.172;2024-03-02T02:59:31;8.97;;;5.77;;
7150;SDS011;3617;48.836;9.172;2024-03-02T03:01:57;7.73;;;4.70;;
7150;SDS011;3617;48.836;9.172;2024-03-02T03:04:24;7.63;;;4.63;;
7150;SDS011;3617;48.836;9.172;2024-03-02T03:06:50;9.67;;;5.33;;
7150;SDS011;3617;48.836;9.172;2024-03-02T03:09:16;10.53;;;5.27;;
7150;SDS011;3617;48.836;9.172;2024-03-02T03:11:42;10.50;;;5.07;;
7150;SDS011;3617;48.836;9.172;2024-03-02T03:14:08;8.70;;;5.53;;
7150;SDS011;3617;48.836;9.172;2024-03-02T03:16:34;14.43;;;5.87;;
7150;SDS011;3617;48.836;9.172;2024-03-02T03:19:00;7.23;;;4.37;;
7150;SDS011;3617;48.836;9.172;2024-03-02T03:21:26;9.03;;;5.63;;
7150;SDS011;3617;48.836;9.172;2024-03-02T03:23:52;9.87;;;5.73;;
7150;SDS011;3617;48.836;9.172;2024-03-02T03:26:18;8.20;;;4.77;;
7150;SDS011;3617;48.836;9.172;2024-03-02T03:28:44;7.67;;;4.30;;
7150;SDS011;3617;48.836;9.172;2024-03-02T03:31:10;9.47;;;5.23;;
7150;SDS011;3617;48.836;9.172;2024-03-02T03:33:36;9.87;;;4.60;;
7150;SDS011;3617;48.836;9.172;2024-03-02T03:36:02;8.87;;;5.43;;
7150;SDS011;3617;48.836;9.172;2024-03-02T03:38:28;8.27;;;5.03;;
7150;SDS011;3617;48.836;9.172;2024-03-02T03:40:54;12.57;;;5.73;;
7150;SDS011;3617;48.836;9.172;2024-03-02T03:43:20;13.00;;;6.10;;
7150;SDS011;3617;48.836;9.172;2024-03-02T03:45:46;10.43;;;5.17;;
7150;SDS011;3617;48.836;9.172;2024-03-02T03:48:12;10.43;;;5.30;;
7150;SDS011;3617;48.836;9.172;2024-03-02T03:50:38;8.37;;;5.13;;
7150;SDS011;3617;48.836;9.172;2024-03-02T03:53:04;10.87;;;5.53;;
7150;SDS011;3617;48.836;9.172;2024-03-02T03:55:30;9.07;;;5.60;;
7150;SDS011;3617;48.836;9.172;2024-03-02T03:57:56;9.67;;;4.40;;
7150;SDS011;3617;48.836;9.172;2024-03-02T04:00:22;8.93;;;5.23;;
7150;SDS011;3617;48.836;9.172;2024-03-02T04:02:48;7.93;;;4.87;;
7150;SDS011;3617;48.836;9.172;2024-03-02T04:05:14;11.17;;;5.70;;
7150;SDS011;3617;48.836;9.172;2024-03-02T04:07:40;16.90;;;6.27;;
7150;SDS011;3617;48.836;9.172;2024-03-02T04:10:08;11.00;;;5.80;;
7150;SDS011;3617;48.836;9.172;2024-03-02T04:12:34;15.63;;;5.90;;
7150;SDS011;3617;48.836;9.172;2024-03-02T04:15:01;12.20;;;6.07;;
7150;SDS011;3617;48.836;9.172;2024-03-02T04:17:28;9.10;;;5.20;;
7150;SDS011;3617;48.836;9.172;2024-03-02T04:19:54;9.53;;;4.97;;
7150;SDS011;3617;48.836;9.172;2024-03-02T04:22:20;16.80;;;7.73;;
7150;SDS011;3617;48.836;9.172;2024-03-02T04:24:46;11.40;;;6.33;;
7150;SDS011;3617;48.836;9.172;2024-03-02T04:27:12;9.90;;;6.27;;
7150;SDS011;3617;48.836;9.172;2024-03-02T04:29:40;11.30;;;5.30;;
7150;SDS011;3617;48.836;9.172;2024-03-02T04:32:06;15.83;;;6.27;;
7150;SDS011;3617;48.836;9.172;2024-03-02T04:34:32;15.40;;;7.67;;
7150;SDS011;3617;48.836;9.172;2024-03-02T04:36:58;16.40;;;8.97;;
7150;SDS011;3617;48.836;9.172;2024-03-02T04:39:24;18.43;;;8.80;;
7150;SDS011;3617;48.836;9.172;2024-03-02T04:41:50;19.40;;;9.77;;
7150;SDS011;3617;48.836;9.172;2024-03-02T04:44:16;16.93;;;8.03;;
7150;SDS011;3617;48.836;9.172;2024-03-02T04:46:42;12.77;;;6.27;;
7150;SDS011;3617;48.836;9.172;2024-03-02T04:49:08;10.43;;;5.90;;
7150;SDS011;3617;48.836;9.172;2024-03-02T04:51:34;9.20;;;4.90;;
7150;SDS011;3617;48.836;9.172;2024-03-02T04:54:00;9.27;;;5.67;;
7150;SDS011;3617;48.836;9.172;2024-03-02T04:56:26;7.73;;;5.13;;
7150;SDS011;3617;48.836;9.172;2024-03-02T04:59:15;6.83;;;4.73;;
7150;SDS011;3617;48.836;9.172;2024-03-02T05:01:41;8.30;;;5.20;;
7150;SDS011;3617;48.836;9.172;2024-03-02T05:04:07;12.87;;;5.77;;
7150;SDS011;3617;48.836;9.172;2024-03-02T05:06:36;8.70;;;6.00;;
7150;SDS011;3617;48.836;9.172;2024-03-02T05:09:02;10.40;;;6.30;;
7150;SDS011;3617;48.836;9.172;2024-03-02T05:11:28;13.10;;;5.43;;
7150;SDS011;3617;48.836;9.172;2024-03-02T05:14:13;12.00;;;6.60;;
7150;SDS011;3617;48.836;9.172;2024-03-02T05:16:39;12.27;;;6.23;;
7150;SDS011;3617;48.836;9.172;2024-03-02T05:19:06;14.77;;;5.90;;
7150;SDS011;3617;48.836;9.172;2024-03-02T05:21:33;12.63;;;5.43;;
7150;SDS011;3617;48.836;9.172;2024-03-02T05:23:59;43.97;;;18.63;;
7150;SDS011;3617;48.836;9.172;2024-03-02T05:26:25;19.17;;;9.80;;
7150;SDS011;3617;48.836;9.172;2024-03-02T05:28:51;14.93;;;7.57;;
7150;SDS011;3617;48.836;9.172;2024-03-02T05:31:18;13.27;;;6.37;;
7150;SDS011;3617;48.836;9.172;2024-03-02T05:33:44;10.70;;;5.97;;
7150;SDS011;3617;48.836;9.172;2024-03-02T05:36:10;12.50;;;6.40;;
7150;SDS011;3617;48.836;9.172;2024-03-02T05:38:36;11.70;;;6.23;;
7150;SDS011;3617;48.836;9.172;2024-03-02T05:41:02;6.97;;;4.23;;
7150;SDS011;3617;48.836;9.172;2024-03-02T05:43:28;17.50;;;6.03;;
7150;SDS011;3617;48.836;9.172;2024-03-02T05:45:54;9.60;;;5.70;;
7150;SDS011;3617;48.836;9.172;2024-03-02T05:48:20;11.00;;;5.67;;
7150;SDS011;3617;48.836;9.172;2024-03-02T05:50:46;7.70;;;4.97;;
7150;SDS011;3617;48.836;9.172;2024-03-02T05:53:12;14.90;;;6.30;;
7150;SDS011;3617;48.836;9.172;2024-03-02T05:55:38;10.53;;;5.33;;
7150;SDS011;3617;48.836;9.172;2024-03-02T05:58:04;10.53;;;5.30;;
7150;SDS011;3617;48.836;9.172;2024-03-02T06:00:42;11.23;;;5.13;;
7150;SDS011;3617;48.836;9.172;2024-03-02T06:03:08;7.20;;;5.27;;
7150;SDS011;3617;48.836;9.172;2024-03-02T06:05:34;10.10;;;4.17;;
7150;SDS011;3617;48.836;9.172;2024-03-02T06:08:00;8.47;;;5.23;;
7150;SDS011;3617;48.836;9.172;2024-03-02T06:10:26;12.13;;;5.40;;
7150;SDS011;3617;48.836;9.172;2024-03-02T06:12:52;7.63;;;5.00;;
7150;SDS011;3617;48.836;9.172;2024-03-02T06:15:18;10.10;;;5.70;;
7150;SDS011;3617;48.836;9.172;2024-03-02T06:17:44;9.07;;;5.17;;
7150;SDS011;3617;48.836;9.172;2024-03-02T06:20:10;12.43;;;6.73;;
7150;SDS011;3617;48.836;9.172;2024-03-02T06:22:36;9.00;;;5.93;;
7150;SDS011;3617;48.836;9.172;2024-03-02T06:25:02;9.53;;;5.60;;
7150;SDS011;3617;48.836;9.172;2024-03-02T06:27:28;11.10;;;6.03;;
7150;SDS011;3617;48.836;9.172;2024-03-02T06:29:54;13.60;;;6.73;;
7150;SDS011;3617;48.836;9.172;2024-03-02T06:32:20;12.27;;;6.43;;
7150;SDS011;3617;48.836;9.172;2024-03-02T06:34:48;12.30;;;5.70;;
7150;SDS011;3617;48.836;9.172;2024-03-02T06:37:14;12.53;;;5.47;;
7150;SDS011;3617;48.836;9.172;2024-03-02T06:39:41;8.93;;;4.70;;
7150;SDS011;3617;48.836;9.172;2024-03-02T06:42:07;18.77;;;7.03;;
7150;SDS011;3617;48.836;9.172;2024-03-02T06:44:33;13.23;;;5.80;;
7150;SDS011;3617;48.836;9.172;2024-03-02T06:46:59;12.43;;;6.87;;
7150;SDS011;3617;48.836;9.172;2024-03-02T06:49:25;14.40;;;6.47;;
7150;SDS011;3617;48.836;9.172;2024-03-02T06:51:51;13.30;;;5.73;;
7150;SDS011;3617;48.836;9.172;2024-03-02T06:54:17;10.83;;;5.90;;
7150;SDS011;3617;48.836;9.172;2024-03-02T06:56:43;9.80;;;6.00;;
7150;SDS011;3617;48.836;9.172;2024-03-02T06:59:09;14.23;;;6.50;;
7150;SDS011;3617;48.836;9.172;2024-03-02T07:01:35;10.77;;;6.37;;
7150;SDS011;3617;48.836;9.172;2024-03-02T07:04:01;9.77;;;6.10;;
7150;SDS011;3617;48.836;9.172;2024-03-02T07:06:27;12.13;;;6.93;;
7150;SDS011;3617;48.836;9.172;2024-03-02T07:08:53;17.50;;;7.07;;
7150;SDS011;3617;48.836;9.172;2024-03-02T07:11:19;9.00;;;5.90;;
7150;SDS011;3617;48.836;9.172;2024-03-02T07:13:45;14.37;;;6.17;;
7150;SDS011;3617;48.836;9.172;2024-03-02T07:16:11;12.83;;;7.07;;
7150;SDS011;3617;48.836;9.172;2024-03-02T07:18:52;12.83;;;5.70;;
7150;SDS011;3617;48.836;9.172;2024-03-02T07:21:20;15.40;;;7.17;;
7150;SDS011;3617;48.836;9.172;2024-03-02T07:23:47;15.77;;;7.70;;
7150;SDS011;3617;48.836;9.172;2024-03-02T07:26:13;12.20;;;7.13;;
7150;SDS011;3617;48.836;9.172;2024-03-02T07:28:40;18.23;;;8.13;;
7150;SDS011;3617;48.836;9.172;2024-03-02T07:31:06;17.10;;;7.70;;
7150;SDS011;3617;48.836;9.172;2024-03-02T07:33:32;14.27;;;8.10;;
7150;SDS011;3617;48.836;9.172;2024-03-02T07:35:58;18.80;;;8.40;;
7150;SDS011;3617;48.836;9.172;2024-03-02T07:38:25;12.93;;;8.10;;
7150;SDS011;3617;48.836;9.172;2024-03-02T07:40:52;13.37;;;7.50;;
7150;SDS011;3617;48.836;9.172;2024-03-02T07:43:18;12.93;;;6.70;;
7150;SDS011;3617;48.836;9.172;2024-03-02T07:45:44;9.83;;;6.60;;
7150;SDS011;3617;48.836;9.172;2024-03-02T07:48:10;11.23;;;6.53;;
7150;SDS011;3617;48.836;9.172;2024-03-02T07:50:36;11.70;;;6.80;;
7150;SDS011;3617;48.836;9.172;2024-03-02T07:53:03;11.13;;;6.20;;
7150;SDS011;3617;48.836;9.172;2024-03-02T07:55:29;10.03;;;5.77;;
7150;SDS011;3617;48.836;9.172;2024-03-02T07:57:56;10.53;;;5.90;;
7150;SDS011;3617;48.836;9.172;2024-03-02T08:00:22;8.60;;;5.67;;
7150;SDS011;3617;48.836;9.172;2024-03-02T08:02:50;8.77;;;5.07;;
7150;SDS011;3617;48.836;9.172;2024-03-02T08:05:18;10.97;;;5.03;;
7150;SDS011;3617;48.836;9.172;2024-03-02T08:07:45;7.33;;;5.37;;
7150;SDS011;3617;48.836;9.172;2024-03-02T08:10:11;7.57;;;4.37;;
7150;SDS011;3617;48.836;9.172;2024-03-02T08:12:37;7.70;;;4.50;;
7150;SDS011;3617;48.836;9.172;2024-03-02T08:15:03;10.23;;;5.43;;
7150;SDS011;3617;48.836;9.172;2024-03-02T08:17:29;7.83;;;4.60;;
7150;SDS011;3617;48.836;9.172;2024-03-02T08:19:56;8.40;;;4.97;;
7150;SDS011;3617;48.836;9.172;2024-03-02T08:22:22;7.33;;;4.60;;
7150;SDS011;3617;48.836;9.172;2024-03-02T08:24:50;8.40;;;4.80;;
7150;SDS011;3617;48.836;9.172;2024-03-02T08:27:16;7.33;;;4.83;;
7150;SDS011;3617;48.836;9.172;2024-03-02T08:29:42;7.37;;;4.27;;
7150;SDS011;3617;48.836;9.172;2024-03-02T08:32:08;7.77;;;4.40;;
7150;SDS011;3617;48.836;9.172;2024-03-02T08:34:34;6.30;;;4.37;;
7150;SDS011;3617;48.836;9.172;2024-03-02T08:37:03;8.03;;;4.70;;
7150;SDS011;3617;48.836;9.172;2024-03-02T08:39:29;8.53;;;4.70;;
7150;SDS011;3617;48.836;9.172;2024-03-02T08:41:55;9.83;;;4.70;;
7150;SDS011;3617;48.836;9.172;2024-03-02T08:44:21;5.70;;;3.93;;
7150;SDS011;3617;48.836;9.172;2024-03-02T08:46:47;7.10;;;4.17;;
7150;SDS011;3617;48.836;9.172;2024-03-02T08:49:13;6.07;;;3.90;;
7150;SDS011;3617;48.836;9.172;2024-03-02T08:51:39;10.60;;;4.17;;
7150;SDS011;3617;48.836;9.172;2024-03-02T08:54:05;6.07;;;4.13;;
7150;SDS011;3617;48.836;9.172;2024-03-02T08:56:31;6.50;;;3.60;;
7150;SDS011;3617;48.836;9.172;2024-03-02T08:58:57;7.40;;;4.13;;
7150;SDS011;3617;48.836;9.172;2024-03-02T09:01:23;5.73;;;3.97;;
7150;SDS011;3617;48.836;9.172;2024-03-02T09:03:49;6.60;;;3.50;;
7150;SDS011;3617;48.836;9.172;2024-03-02T09:06:15;5.47;;;3.37;;
7150;SDS011;3617;48.836;9.172;2024-03-02T09:08:42;5.10;;;3.47;;
7150;SDS011;3617;48.836;9.172;2024-03-02T09:11:08;5.87;;;3.27;;
7150;SDS011;3617;48.836;9.172;2024-03-02T09:13:35;3.63;;;2.90;;
7150;SDS011;3617;48.836;9.172;2024-03-02T09:16:02;3.83;;;2.70;;
7150;SDS011;3617;48.836;9.172;2024-03-02T09:18:29;5.27;;;3.47;;
7150;SDS011;3617;48.836;9.172;2024-03-02T09:20:54;6.13;;;3.17;;
7150;SDS011;3617;48.836;9.172;2024-03-02T09:23:21;3.30;;;2.47;;
7150;SDS011;3617;48.836;9.172;2024-03-02T09:25:47;5.25;;;3.63;;
7150;SDS011;3617;48.836;9.172;2024-03-02T09:28:13;4.07;;;2.88;;
7150;SDS011;3617;48.836;9.172;2024-03-02T09:30:40;4.60;;;3.45;;
7150;SDS011;3617;48.836;9.172;2024-03-02T09:33:06;4.90;;;3.13;;
7150;SDS011;3617;48.836;9.172;2024-03-02T09:35:32;6.60;;;3.15;;
7150;SDS011;3617;48.836;9.172;2024-03-02T09:37:58;5.07;;;3.08;;
7150;SDS011;3617;48.836;9.172;2024-03-02T09:40:24;3.80;;;3.17;;
7150;SDS011;3617;48.836;9.172;2024-03-02T09:42:50;4.28;;;2.92;;
7150;SDS011;3617;48.836;9.172;2024-03-02T09:45:27;3.38;;;2.72;;
7150;SDS011;3617;48.836;9.172;2024-03-02T09:47:53;3.72;;;2.78;;
7150;SDS011;3617;48.836;9.172;2024-03-02T09:50:19;6.20;;;3.15;;
7150;SDS011;3617;48.836;9.172;2024-03-02T09:52:48;4.85;;;3.22;;
7150;SDS011;3617;48.836;9.172;2024-03-02T09:55:15;4.13;;;2.80;;
7150;SDS011;3617;48.836;9.172;2024-03-02T09:57:43;4.82;;;3.17;;
7150;SDS011;3617;48.836;9.172;2024-03-02T10:00:10;4.90;;;3.20;;
7150;SDS011;3617;48.836;9.172;2024-03-02T10:02:39;3.22;;;2.75;;
7150;SDS011;3617;48.836;9.172;2024-03-02T10:05:06;3.90;;;2.78;;
7150;SDS011;3617;48.836;9.172;2024-03-02T10:07:32;4.00;;;2.28;;
7150;SDS011;3617;48.836;9.172;2024-03-02T10:09:58;3.63;;;2.72;;
7150;SDS011;3617;48.836;9.172;2024-03-02T10:12:37;4.43;;;2.92;;
7150;SDS011;3617;48.836;9.172;2024-03-02T10:15:03;3.83;;;2.78;;
7150;SDS011;3617;48.836;9.172;2024-03-02T10:17:30;3.65;;;2.50;;
7150;SDS011;3617;48.836;9.172;2024-03-02T10:19:56;4.28;;;2.80;;
7150;SDS011;3617;48.836;9.172;2024-03-02T10:22:23;2.70;;;2.20;;
7150;SDS011;3617;48.836;9.172;2024-03-02T10:24:49;2.97;;;2.20;;
7150;SDS011;3617;48.836;9.172;2024-03-02T10:27:23;2.85;;;2.22;;
7150;SDS011;3617;48.836;9.172;2024-03-02T10:29:49;3.30;;;2.63;;
7150;SDS011;3617;48.836;9.172;2024-03-02T10:32:15;3.10;;;2.38;;
7150;SDS011;3617;48.836;9.172;2024-03-02T10:34:42;3.42;;;2.55;;
7150;SDS011;3617;48.836;9.172;2024-03-02T10:37:08;3.45;;;2.40;;
7150;SDS011;3617;48.836;9.172;2024-03-02T10:39:35;4.55;;;2.67;;
7150;SDS011;3617;48.836;9.172;2024-03-02T10:42:02;3.85;;;2.28;;
7150;SDS011;3617;48.836;9.172;2024-03-02T10:44:30;3.55;;;2.40;;
7150;SDS011;3617;48.836;9.172;2024-03-02T10:46:57;10.30;;;2.75;;
7150;SDS011;3617;48.836;9.172;2024-03-02T10:49:25;2.40;;;2.03;;
7150;SDS011;3617;48.836;9.172;2024-03-02T10:51:53;2.90;;;2.40;;
7150;SDS011;3617;48.836;9.172;2024-03-02T10:54:19;3.42;;;2.42;;
7150;SDS011;3617;48.836;9.172;2024-03-02T10:56:51;3.67;;;2.60;;
7150;SDS011;3617;48.836;9.172;2024-03-02T10:59:28;3.42;;;2.38;;
7150;SDS011;3617;48.836;9.172;2024-03-02T11:01:57;2.53;;;2.03;;
7150;SDS011;3617;48.836;9.172;2024-03-02T11:04:24;3.35;;;2.40;;
7150;SDS011;3617;48.836;9.172;2024-03-02T11:06:51;2.95;;;1.85;;
7150;SDS011;3617;48.836;9.172;2024-03-02T11:09:21;3.42;;;2.40;;
7150;SDS011;3617;48.836;9.172;2024-03-02T11:11:49;3.10;;;2.15;;
7150;SDS011;3617;48.836;9.172;2024-03-02T11:14:19;2.78;;;2.10;;
7150;SDS011;3617;48.836;9.172;2024-03-02T11:16:48;3.65;;;2.40;;
7150;SDS011;3617;48.836;9.172;2024-03-02T11:19:16;3.17;;;2.30;;
7150;SDS011;3617;48.836;9.172;2024-03-02T11:21:42;3.22;;;2.13;;
7150;SDS011;3617;48.836;9.172;2024-03-02T11:26:52;2.63;;;1.92;;
7150;SDS011;3617;48.836;9.172;2024-03-02T11:32:15;2.63;;;1.60;;
7150;SDS011;3617;48.836;9.172;2024-03-02T11:34:42;2.15;;;1.70;;
7150;SDS011;3617;48.836;9.172;2024-03-02T11:37:12;3.03;;;2.07;;
7150;SDS011;3617;48.836;9.172;2024-03-02T11:39:39;2.53;;;1.80;;
7150;SDS011;3617;48.836;9.172;2024-03-02T11:42:05;3.07;;;1.80;;
7150;SDS011;3617;48.836;9.172;2024-03-02T11:44:33;2.57;;;1.73;;
7150;SDS011;3617;48.836;9.172;2024-03-02T11:47:00;2.60;;;1.80;;
7150;SDS011;3617;48.836;9.172;2024-03-02T11:49:36;1.53;;;1.10;;
7150;SDS011;3617;48.836;9.172;2024-03-02T11:52:03;2.17;;;1.20;;
7150;SDS011;3617;48.836;9.172;2024-03-02T11:54:31;1.20;;;1.10;;
7150;SDS011;3617;48.836;9.172;2024-03-02T11:57:01;1.20;;;1.10;;
7150;SDS011;3617;48.836;9.172;2024-03-02T11:59:31;1.10;;;1.00;;
7150;SDS011;3617;48.836;9.172;2024-03-02T12:01:57;2.33;;;1.10;;
7150;SDS011;3617;48.836;9.172;2024-03-02T12:04:24;1.23;;;1.00;;
7150;SDS011;3617;48.836;9.172;2024-03-02T12:06:54;1.60;;;1.00;;
7150;SDS011;3617;48.836;9.172;2024-03-02T12:09:21;1.95;;;0.60;;
7150;SDS011;3617;48.836;9.172;2024-03-02T12:11:47;0.50;;;0.50;;
7150;SDS011;3617;48.836;9.172;2024-03-02T12:14:13;0.60;;;0.60;;
7150;SDS011;3617;48.836;9.172;2024-03-02T12:16:39;0.50;;;0.50;;
7150;SDS011;3617;48.836;9.172;2024-03-02T12:19:06;0.50;;;0.50;;
7150;SDS011;3617;48.836;9.172;2024-03-02T12:21:32;0.90;;;0.60;;
7150;SDS011;3617;48.836;9.172;2024-03-02T12:23:58;0.70;;;0.70;;
7150;SDS011;3617;48.836;9.172;2024-03-02T12:26:24;0.80;;;0.70;;
7150;SDS011;3617;48.836;9.172;2024-03-02T12:28:50;2.15;;;0.88;;
7150;SDS011;3617;48.836;9.172;2024-03-02T12:31:16;0.88;;;0.80;;
7150;SDS011;3617;48.836;9.172;2024-03-02T12:33:42;1.65;;;0.50;;
7150;SDS011;3617;48.836;9.172;2024-03-02T12:36:13;0.60;;;0.60;;
7150;SDS011;3617;48.836;9.172;2024-03-02T12:38:45;0.50;;;0.50;;
7150;SDS011;3617;48.836;9.172;2024-03-02T12:41:14;0.82;;;0.70;;
7150;SDS011;3617;48.836;9.172;2024-03-02T12:43:40;0.60;;;0.60;;
7150;SDS011;3617;48.836;9.172;2024-03-02T12:46:06;0.70;;;0.55;;
7150;SDS011;3617;48.836;9.172;2024-03-02T12:48:32;0.65;;;0.52;;
7150;SDS011;3617;48.836;9.172;2024-03-02T12:50:58;0.85;;;0.65;;
7150;SDS011;3617;48.836;9.172;2024-03-02T12:53:24;0.50;;;0.50;;
7150;SDS011;3617;48.836;9.172;2024-03-02T12:55:50;0.50;;;0.50;;
7150;SDS011;3617;48.836;9.172;2024-03-02T12:58:18;1.05;;;0.75;;
7150;SDS011;3617;48.836;9.172;2024-03-02T13:00:44;0.90;;;0.90;;
7150;SDS011;3617;48.836;9.172;2024-03-02T13:03:11;1.33;;;0.60;;
7150;SDS011;3617;48.836;9.172;2024-03-02T13:05:37;0.60;;;0.60;;
7150;SDS011;3617;48.836;9.172;2024-03-02T13:08:03;0.80;;;0.80;;
7150;SDS011;3617;48.836;9.172;2024-03-02T13:10:29;0.80;;;0.80;;
7150;SDS011;3617;48.836;9.172;2024-03-02T13:12:56;0.70;;;0.70;;
7150;SDS011;3617;48.836;9.172;2024-03-02T13:15:22;0.70;;;0.70;;
7150;SDS011;3617;48.836;9.172;2024-03-02T13:17:49;0.60;;;0.60;;
7150;SDS011;3617;48.836;9.172;2024-03-02T13:20:15;0.70;;;0.70;;
7150;SDS011;3617;48.836;9.172;2024-03-02T13:22:43;0.67;;;0.60;;
7150;SDS011;3617;48.836;9.172;2024-03-02T13:25:09;1.02;;;0.95;;
7150;SDS011;3617;48.836;9.172;2024-03-02T13:27:36;0.70;;;0.70;;
7150;SDS011;3617;48.836;9.172;2024-03-02T13:30:02;0.87;;;0.77;;
7150;SDS011;3617;48.836;9.172;2024-03-02T13:32:30;0.90;;;0.67;;
7150;SDS011;3617;48.836;9.172;2024-03-02T13:34:56;0.80;;;0.80;;
7150;SDS011;3617;48.836;9.172;2024-03-02T13:37:22;0.83;;;0.83;;
7150;SDS011;3617;48.836;9.172;2024-03-02T13:39:48;1.13;;;1.00;;
7150;SDS011;3617;48.836;9.172;2024-03-02T13:42:15;0.70;;;0.70;;
7150;SDS011;3617;48.836;9.172;2024-03-02T13:44:42;0.70;;;0.70;;
7150;SDS011;3617;48.836;9.172;2024-03-02T13:47:12;1.27;;;0.77;;
7150;SDS011;3617;48.836;9.172;2024-03-02T13:49:38;0.97;;;0.80;;
7150;SDS011;3617;48.836;9.172;2024-03-02T13:52:09;0.77;;;0.73;;
7150;SDS011;3617;48.836;9.172;2024-03-02T13:54:54;0.63;;;0.60;;
7150;SDS011;3617;48.836;9.172;2024-03-02T13:57:20;1.27;;;0.80;;
7150;SDS011;3617;48.836;9.172;2024-03-02T13:59:46;0.60;;;0.60;;
7150;SDS011;3617;48.836;9.172;2024-03-02T14:02:12;1.00;;;0.90;;
7150;SDS011;3617;48.836;9.172;2024-03-02T14:04:38;0.80;;;0.80;;
7150;SDS011;3617;48.836;9.172;2024-03-02T14:07:05;1.07;;;0.97;;
7150;SDS011;3617;48.836;9.172;2024-03-02T14:09:35;2.13;;;0.90;;
7150;SDS011;3617;48.836;9.172;2024-03-02T14:12:01;0.87;;;0.87;;
7150;SDS011;3617;48.836;9.172;2024-03-02T14:14:27;0.90;;;0.90;;
7150;SDS011;3617;48.836;9.172;2024-03-02T14:16:54;1.07;;;0.73;;
7150;SDS011;3617;48.836;9.172;2024-03-02T14:19:29;1.20;;;1.10;;
7150;SDS011;3617;48.836;9.172;2024-03-02T14:21:55;1.30;;;0.90;;
7150;SDS011;3617;48.836;9.172;2024-03-02T14:24:21;1.90;;;1.00;;
7150;SDS011;3617;48.836;9.172;2024-03-02T14:26:51;1.43;;;1.23;;
7150;SDS011;3617;48.836;9.172;2024-03-02T14:29:18;1.80;;;1.10;;
7150;SDS011;3617;48.836;9.172;2024-03-02T14:31:44;1.07;;;0.80;;
7150;SDS011;3617;48.836;9.172;2024-03-02T14:34:13;1.30;;;1.10;;
7150;SDS011;3617;48.836;9.172;2024-03-02T14:36:39;1.10;;;1.00;;
7150;SDS011;3617;48.836;9.172;2024-03-02T14:39:08;1.23;;;0.93;;
7150;SDS011;3617;48.836;9.172;2024-03-02T14:41:35;0.93;;;0.77;;
7150;SDS011;3617;48.836;9.172;2024-03-02T14:44:01;1.10;;;1.00;;
7150;SDS011;3617;48.836;9.172;2024-03-02T14:46:27;0.80;;;0.70;;
7150;SDS011;3617;48.836;9.172;2024-03-02T14:48:53;1.40;;;0.93;;
7150;SDS011;3617;48.836;9.172;2024-03-02T14:51:19;2.87;;;1.10;;
7150;SDS011;3617;48.836;9.172;2024-03-02T14:53:45;0.90;;;0.80;;
7150;SDS011;3617;48.836;9.172;2024-03-02T14:56:11;0.90;;;0.80;;
7150;SDS011;3617;48.836;9.172;2024-03-02T14:58:40;3.07;;;1.17;;
7150;SDS011;3617;48.836;9.172;2024-03-02T15:01:06;2.33;;;1.00;;
7150;SDS011;3617;48.836;9.172;2024-03-02T15:03:33;3.23;;;1.13;;
7150;SDS011;3617;48.836;9.172;2024-03-02T15:06:00;1.40;;;1.00;;
7150;SDS011;3617;48.836;9.172;2024-03-02T15:08:26;0.90;;;0.80;;
7150;SDS011;3617;48.836;9.172;2024-03-02T15:10:52;0.80;;;0.80;;
7150;SDS011;3617;48.836;9.172;2024-03-02T15:13:21;0.90;;;0.90;;
7150;SDS011;3617;48.836;9.172;2024-03-02T15:15:47;1.00;;;0.90;;